Flight Track Log - Related Links

Times and Time Zones

All times are in EDT time to prevent confusion due to time zone crossing. See the N4148L flight status page for this flight to view local times or setup timezone preferences in your user account.

Time Position Orientation Groundspeed Altitude Reporting Facility
EDT Latitude Longitude Course Direction KTS MPH feet Rate Location/Type
Thu 01:46:05 PM 35.3508 -85.9222 35° Northeast 129 148 3,800  Level Memphis Center
Thu 01:47:07 PM 35.3825 -85.8981 32° Northeast 139 160 4,300 484 Climbing Memphis Center
Thu 01:48:00 PM 35.3754 -85.8899 34° Northeast  Level FlightAware Approximate
Thu 01:48:09 PM 35.4131 -85.8761 30° Northeast 133 153 4,800  Level Memphis Center
Thu 01:49:00 PM 35.4141 -85.8525 39° Northeast  Level FlightAware Approximate
Thu 01:49:11 PM 35.4425 -85.8492 37° Northeast 132 152 5,300  Level Memphis Center
Thu 01:50:00 PM 35.4533 -85.8159 35° Northeast  Level FlightAware Approximate
Thu 01:50:13 PM 35.4767 -85.8178 37° Northeast 130 150 5,900  Level Memphis Center
Thu 01:51:00 PM 35.4935 -85.7809 35° Northeast  Level FlightAware Approximate
Thu 01:51:15 PM 35.5056 -85.7917 36° Northeast 129 148 6,400  Level Memphis Center
Thu 01:52:17 PM 35.5358 -85.7675 33° Northeast 129 148 6,900 532 Climbing Memphis Center
Thu 01:53:19 PM 35.5664 -85.7422 34° Northeast 132 152 7,500 532 Climbing Memphis Center
Thu 01:54:21 PM 35.5992 -85.7150 34° Northeast 136 157 8,000 432 Climbing Memphis Center
Thu 01:55:24 PM 35.6300 -85.6883 35° Northeast 136 157 8,400 432 Climbing Memphis Center
Thu 01:56:26 PM 35.6678 -85.6586 33° Northeast 136 157 8,900 290 Climbing Memphis Center
Thu 01:57:28 PM 35.7028 -85.6278 36° Northeast 146 168 9,000 48 Climbing Memphis Center
Thu 01:58:30 PM 35.7444 -85.5936 34° Northeast 170 196 9,000  Level Memphis Center
Thu 01:59:32 PM 35.7861 -85.5572 35° Northeast 177 204 9,000  Level Memphis Center
Thu 02:00:34 PM 35.8267 -85.5217 35° Northeast 178 205 9,000  Level Memphis Center
Thu 02:01:36 PM 35.8664 -85.4825 39° Northeast 179 206 9,000  Level Memphis Center
Thu 02:02:38 PM 35.9053 -85.4442 39° Northeast 179 206 9,000  Level Memphis Center
Thu 02:03:40 PM 35.9539 -85.3975 38° Northeast 179 206 9,000  Level Memphis Center
Thu 02:04:42 PM 35.9950 -85.3603 36° Northeast 179 206 9,000  Level Memphis Center
Thu 02:05:44 PM 36.0358 -85.3222 37° Northeast 180 207 9,000  Level Memphis Center
Thu 02:06:47 PM 36.0775 -85.2839 37° Northeast 181 208 9,000  Level Memphis Center
Thu 02:07:49 PM 36.1186 -85.2450 37° Northeast 182 209 9,000  Level Memphis Center
Thu 02:08:51 PM 36.1608 -85.2078 35° Northeast 182 209 9,000  Level Indianapolis Center
Thu 02:09:53 PM 36.2117 -85.1625 36° Northeast 183 211 9,000  Level Indianapolis Center
Thu 02:10:55 PM 36.2542 -85.1244 36° Northeast 184 212 9,000  Level Indianapolis Center
Thu 02:11:57 PM 36.2958 -85.0856 37° Northeast 185 213 9,000  Level Indianapolis Center
Thu 02:12:59 PM 36.3397 -85.0489 34° Northeast 185 213 9,000  Level Indianapolis Center
Thu 02:14:01 PM 36.3811 -85.0100 37° Northeast 186 214 9,000  Level Indianapolis Center
Thu 02:15:03 PM 36.4239 -84.9711 36° Northeast 186 214 9,000  Level Indianapolis Center
Thu 02:16:05 PM 36.4664 -84.9322 36° Northeast 189 217 9,000  Level Indianapolis Center
Thu 02:17:07 PM 36.5206 -84.8894 32° Northeast 189 217 9,000  Level Indianapolis Center
Thu 02:18:09 PM 36.5636 -84.8519 35° Northeast 189 217 9,000  Level Indianapolis Center
Thu 02:19:11 PM 36.6081 -84.8172 32° Northeast 189 217 9,000  Level Indianapolis Center
Thu 02:20:13 PM 36.6539 -84.7839 30° Northeast 189 217 9,000  Level Indianapolis Center
Thu 02:21:15 PM 36.7000 -84.7514 29° Northeast 189 217 9,000  Level Indianapolis Center
Thu 02:22:17 PM 36.7444 -84.7147 33° Northeast 189 217 9,000  Level Indianapolis Center
Thu 02:23:19 PM 36.7886 -84.6794 33° Northeast 190 219 9,000  Level Indianapolis Center
Thu 02:24:21 PM 36.8408 -84.6344 35° Northeast 190 219 9,000  Level Indianapolis Center
Thu 02:25:23 PM 36.8842 -84.5953 36° Northeast 190 219 9,000  Level Indianapolis Center
Thu 02:26:25 PM 36.9278 -84.5561 36° Northeast 190 219 9,000  Level Indianapolis Center
Thu 02:27:27 PM 36.9697 -84.5153 38° Northeast 190 219 9,000  Level Indianapolis Center
Thu 02:28:29 PM 37.0167 -84.4731 36° Northeast 190 219 9,000  Level Indianapolis Center
Thu 02:29:31 PM 37.0600 -84.4317 37° Northeast 191 220 9,000  Level Indianapolis Center
Thu 02:30:33 PM 37.1028 -84.3933 36° Northeast 191 220 9,000  Level Indianapolis Center
Thu 02:31:35 PM 37.1458 -84.3519 37° Northeast 193 222 9,000  Level Indianapolis Center
Thu 02:32:38 PM 37.1961 -84.3050 37° Northeast 193 222 9,000  Level Indianapolis Center
Thu 02:33:40 PM 37.2375 -84.2644 38° Northeast 192 221 9,000  Level Indianapolis Center
Thu 02:34:42 PM 37.2814 -84.2233 37° Northeast 192 221 9,000  Level Indianapolis Center
Thu 02:35:44 PM 37.3242 -84.1808 38° Northeast 193 222 9,000  Level Indianapolis Center
Thu 02:36:46 PM 37.3672 -84.1394 37° Northeast 193 222 9,000  Level Indianapolis Center
Thu 02:37:48 PM 37.4108 -84.1006 35° Northeast 193 222 9,000  Level Indianapolis Center
Thu 02:38:50 PM 37.4608 -84.0522 37° Northeast 193 222 9,000  Level Indianapolis Center
Thu 02:39:52 PM 37.5044 -84.0128 36° Northeast 193 222 9,000  Level Indianapolis Center
Thu 02:40:54 PM 37.5489 -83.9717 36° Northeast 195 224 9,000  Level Indianapolis Center
Thu 02:41:56 PM 37.5919 -83.9308 37° Northeast 195 224 9,000  Level Indianapolis Center
Thu 02:42:58 PM 37.6347 -83.8908 37° Northeast 195 224 9,000  Level Indianapolis Center
Thu 02:44:01 PM 37.6864 -83.8422 37° Northeast 195 224 9,000  Level Indianapolis Center
Thu 02:45:03 PM 37.7286 -83.8006 38° Northeast 195 224 9,000  Level Indianapolis Center
Thu 02:46:05 PM 37.7733 -83.7594 36° Northeast 195 224 9,000  Level Indianapolis Center
Thu 02:47:07 PM 37.8167 -83.7192 36° Northeast 195 224 9,000  Level Indianapolis Center
Thu 02:48:09 PM 37.8611 -83.6783 36° Northeast 195 224 9,000  Level Indianapolis Center
Thu 02:49:11 PM 37.9058 -83.6383 35° Northeast 195 224 9,000  Level Indianapolis Center
Thu 02:50:13 PM 37.9569 -83.5931 35° Northeast 195 224 9,000  Level Indianapolis Center
Thu 02:51:15 PM 38.0014 -83.5525 36° Northeast 195 224 9,000  Level Indianapolis Center
Thu 02:52:17 PM 38.0442 -83.5122 37° Northeast 195 224 9,000  Level Indianapolis Center
Thu 02:53:19 PM 38.0886 -83.4733 35° Northeast 194 223 9,000  Level Indianapolis Center
Thu 02:54:22 PM 38.1333 -83.4336 35° Northeast 194 223 9,000  Level Indianapolis Center
Thu 02:55:24 PM 38.1856 -83.3872 35° Northeast 194 223 9,000  Level Indianapolis Center
Thu 02:56:26 PM 38.2286 -83.3458 37° Northeast 194 223 9,000  Level Indianapolis Center
Thu 02:57:28 PM 38.2725 -83.3050 36° Northeast 194 223 9,000  Level Indianapolis Center
Thu 02:58:30 PM 38.3150 -83.2628 38° Northeast 194 223 9,000  Level Indianapolis Center
Thu 02:59:32 PM 38.3592 -83.2225 36° Northeast 194 223 9,000  Level Indianapolis Center
Thu 03:00:34 PM 38.4014 -83.1792 39° Northeast 194 223 9,000  Level Indianapolis Center
Thu 03:01:36 PM 38.4508 -83.1308 37° Northeast 194 223 9,000  Level Indianapolis Center
Thu 03:02:38 PM 38.4947 -83.0906 36° Northeast 194 223 9,000  Level Indianapolis Center
Thu 03:03:40 PM 38.5383 -83.0486 37° Northeast 194 223 9,000  Level Indianapolis Center
Thu 03:04:42 PM 38.5825 -83.0075 36° Northeast 194 223 9,000  Level Indianapolis Center
Thu 03:05:45 PM 38.6264 -82.9667 36° Northeast 194 223 9,000  Level Indianapolis Center
Thu 03:06:47 PM 38.6808 -82.9217 33° Northeast 197 227 9,000  Level Indianapolis Center
Thu 03:07:49 PM 38.7236 -82.8800 37° Northeast 195 224 9,000  Level Indianapolis Center
Thu 03:08:51 PM 38.7675 -82.8406 35° Northeast 195 224 9,000  Level Indianapolis Center
Thu 03:09:53 PM 38.8106 -82.8003 36° Northeast 194 223 9,000  Level Indianapolis Center
Thu 03:10:55 PM 38.8547 -82.7592 36° Northeast 194 223 9,000  Level Indianapolis Center
Thu 03:11:57 PM 38.8986 -82.7181 36° Northeast 194 223 9,000  Level Indianapolis Center
Thu 03:12:59 PM 38.9522 -82.6694 35° Northeast 194 223 9,000  Level Indianapolis Center
Thu 03:14:01 PM 38.9956 -82.6278 37° Northeast 194 223 9,000  Level Indianapolis Center
Thu 03:15:03 PM 39.0383 -82.5864 37° Northeast 194 223 9,000  Level Indianapolis Center
Thu 03:16:05 PM 39.0822 -82.5439 37° Northeast 194 223 9,000  Level Indianapolis Center
Thu 03:17:08 PM 39.1250 -82.5019 37° Northeast 194 223 9,000  Level Indianapolis Center
Thu 03:18:10 PM 39.1669 -82.4597 38° Northeast 194 223 9,000  Level Indianapolis Center
Thu 03:19:12 PM 39.2086 -82.4164 39° Northeast 194 223 9,000  Level Indianapolis Center
Thu 03:20:14 PM 39.2592 -82.3664 37° Northeast 194 223 9,000  Level Indianapolis Center
Thu 03:21:16 PM 39.3022 -82.3258 36° Northeast 194 223 9,000  Level Indianapolis Center
Thu 03:22:18 PM 39.3447 -82.2819 39° Northeast 194 223 9,000  Level Indianapolis Center
Thu 03:23:20 PM 39.3878 -82.2411 36° Northeast 193 222 9,000  Level Indianapolis Center
Thu 03:24:22 PM 39.4308 -82.1989 37° Northeast 193 222 9,000  Level Indianapolis Center
Thu 03:25:24 PM 39.4803 -82.1497 38° Northeast 193 222 9,000  Level Indianapolis Center
Thu 03:26:27 PM 39.5247 -82.1067 37° Northeast 193 222 9,000  Level Indianapolis Center
Thu 03:27:29 PM 39.5675 -82.0628 38° Northeast 193 222 9,000  Level Indianapolis Center
Thu 03:28:31 PM 39.6106 -82.0194 38° Northeast 193 222 9,000  Level Indianapolis Center
Thu 03:29:33 PM 39.6525 -81.9775 38° Northeast 193 222 9,000  Level Indianapolis Center
Thu 03:30:35 PM 39.6967 -81.9356 36° Northeast 193 222 9,000  Level Indianapolis Center
Thu 03:31:37 PM 39.7450 -81.8867 38° Northeast 193 222 9,000  Level Indianapolis Center
Thu 03:32:39 PM 39.7872 -81.8453 37° Northeast 193 222 9,000  Level Indianapolis Center
Thu 03:33:41 PM 39.8292 -81.8031 38° Northeast 193 222 9,000  Level Indianapolis Center
Thu 03:34:43 PM 39.8719 -81.7589 38° Northeast 194 223 9,000  Level Indianapolis Center
Thu 03:35:45 PM 39.9156 -81.7172 36° Northeast 194 223 9,000  Level Indianapolis Center
Thu 03:36:48 PM 39.9697 -81.6703 34° Northeast 194 223 9,000  Level Indianapolis Center
Thu 03:37:50 PM 40.0117 -81.6342 33° Northeast 194 223 9,000 -242 Level Indianapolis Center
Thu 03:38:52 PM 40.0567 -81.5908 36° Northeast 195 224 8,500 -447 Descending Indianapolis Center
Thu 03:40:31 PM 40.1378 -81.5128 36° Northeast 204 235 7,800 -410 Descending Cleveland Center
Thu 03:41:33 PM 40.1819 -81.4703 36° Northeast 201 231 7,400 -384 Descending Cleveland Center
Thu 03:42:36 PM 40.2242 -81.4303 36° Northeast 192 221 7,000 -336 Descending Cleveland Center
Thu 03:43:38 PM 40.2642 -81.3889 38° Northeast 187 215 6,700 -290 Descending Cleveland Center
Thu 03:44:40 PM 40.3044 -81.3483 38° Northeast 186 214 6,400 -339 Descending Cleveland Center
Thu 03:45:42 PM 40.3506 -81.3000 39° Northeast 180 207 6,000 -339 Descending Cleveland Center
Thu 03:46:44 PM 40.3908 -81.2611 36° Northeast 180 207 5,700 -339 Descending Cleveland Center
Thu 03:47:46 PM 40.4306 -81.2219 37° Northeast 180 207 5,300 -339 Descending Cleveland Center
Thu 03:48:48 PM 40.4694 -81.1833 37° Northeast 179 206 5,000 -145 Descending Cleveland Center
Thu 03:49:50 PM 40.5092 -81.1450 36° Northeast 179 206 5,000  Level Cleveland Center
Thu 03:50:53 PM 40.5461 -81.1064 38° Northeast 176 203 5,000  Level Cleveland Center
Thu 03:51:55 PM 40.5919 -81.0622 36° Northeast 173 199 5,000  Level Cleveland Center
Thu 03:52:57 PM 40.6281 -81.0211 41° Northeast 173 199 5,000  Level Cleveland Center
Thu 03:53:59 PM 40.6633 -80.9814 40° Northeast 172 198 5,000  Level Cleveland Center
Thu 03:55:01 PM 40.7000 -80.9436 38° Northeast 170 196 5,000 -97 Level Cleveland Center
Thu 03:56:03 PM 40.7378 -80.9014 40° Northeast 171 197 4,800 -290 Descending Cleveland Center
Thu 03:57:05 PM 40.7778 -80.8603 38° Northeast 177 204 4,400 -387 Descending Cleveland Center
Thu 03:58:07 PM 40.8222 -80.8122 39° Northeast 177 204 4,000 -242 Descending Cleveland Center
Thu 03:59:09 PM 40.8586 -80.7719 40° Northeast 177 204 3,900 -97 Descending Cleveland Center

Login

Don't have an account? Register now (free) for customized features, flight alerts, and more!